CJD2 weather

Cudworth Municipal Airport
Cudworth, Saskatchewan, Canada

Public forecast

Using degrees Celsius for public forecast. Weather courtesy of forecast.io.

Closest aviation weather report (METAR) to Cudworth Municipal Airport

Closest report is Saskatoon John G. Diefenbaker International Airport, 40.7 nm (75.3 km) WSW. Retrieved 2019/10/20 15:00 UTC (23 minutes ago):

CYXE 201500Z 25009KT 15SM FEW030 M02/M03 A2977 RMK SC2 SLP109

Closest aviation forecast (TAF) to Cudworth Municipal Airport

Closest forecast is Saskatoon John G. Diefenbaker International Airport, 40.7 nm (75.3 km) WSW. Retrieved 2019/10/20 12:42 UTC (3 hours ago):

TAF CYXE 201139Z 2012/2112 28007KT P6SM SKC FM201500 27010KT P6SM BKN020 OVC050 TEMPO 2015/2020 SCT020 OVC050 FM202000 29012KT P6SM BKN030 BKN080 FM210200 30006KT P6SM SCT050 BECMG 2103/2105 VRB03KT SKC RMK NXT FCST BY 201800Z